createdAt,value
2023-02-14T00:03:36.680Z,-175.99815
2023-02-14T00:08:37.609Z,-176.00777
2023-02-14T00:13:38.487Z,-175.99075
2023-02-14T00:18:39.388Z,-175.71572
2023-02-14T00:23:40.374Z,-175.7188
2023-02-14T00:28:41.341Z,-175.79185
2023-02-14T00:33:42.591Z,-175.81162
2023-02-14T00:38:43.558Z,-175.6706
2023-02-14T00:43:45.477Z,-175.40349
2023-02-14T00:48:46.414Z,-175.61633
2023-02-14T00:53:47.353Z,-175.11726
2023-02-14T00:58:48.272Z,-175.34154
2023-02-14T01:03:49.424Z,-174.87829
2023-02-14T01:08:50.381Z,-174.93242
2023-02-14T01:13:51.348Z,-174.42995
2023-02-14T01:18:52.357Z,-174.07087
2023-02-14T01:23:53.353Z,-173.94857
2023-02-14T01:28:54.266Z,-173.86846
2023-02-14T01:33:55.209Z,-173.56658
2023-02-14T01:38:56.149Z,-173.19183
2023-02-14T01:43:57.081Z,-172.45945
2023-02-14T01:48:58.163Z,-172.49878
2023-02-14T01:53:59.212Z,-171.98371
2023-02-14T01:59:00.217Z,-172.09435
2023-02-14T02:04:01.217Z,-171.88323
2023-02-14T02:09:02.373Z,-171.85812
2023-02-14T02:14:03.289Z,-172.33069
2023-02-14T02:19:04.213Z,-172.51383
2023-02-14T02:24:05.140Z,-172.67013
2023-02-14T02:29:06.074Z,-172.65054
2023-02-14T02:34:07.073Z,-172.30994
2023-02-14T02:39:08.082Z,-172.11452
2023-02-14T02:44:09.013Z,-172.16785
2023-02-14T02:49:09.948Z,-172.41815
2023-02-14T02:54:10.959Z,-172.44354
2023-02-14T02:59:11.893Z,-171.95381
2023-02-14T03:04:12.849Z,-172.14029
2023-02-14T03:09:13.783Z,-171.95723
2023-02-14T03:14:14.698Z,-172.19454
2023-02-14T03:19:15.651Z,-172.11013
2023-02-14T03:24:16.595Z,-171.79515
2023-02-14T03:29:17.531Z,-171.45436
2023-02-14T03:34:18.473Z,-171.50125
2023-02-14T03:39:19.511Z,-171.14952
2023-02-14T03:44:20.424Z,-171.48661
2023-02-14T03:49:21.826Z,-171.56424
2023-02-14T03:54:22.787Z,-171.91396
2023-02-14T03:59:23.723Z,-171.62917
2023-02-14T04:04:24.890Z,-170.84731
2023-02-14T04:09:25.937Z,-171.04378
2023-02-14T04:14:26.847Z,-170.66312
2023-02-14T04:19:27.773Z,-170.79534
2023-02-14T04:24:28.705Z,-170.58893
2023-02-14T04:29:29.623Z,-170.86632
2023-02-14T04:34:30.506Z,-170.85404
2023-02-14T04:39:31.679Z,-170.19845
2023-02-14T04:44:32.848Z,-169.97404
2023-02-14T04:49:33.773Z,-170.26445
2023-02-14T04:54:34.681Z,-169.94664
2023-02-14T04:59:35.638Z,-169.23777
2023-02-14T05:04:36.548Z,-169.43788
2023-02-14T05:09:37.744Z,-168.85164
2023-02-14T05:14:38.678Z,-169.18745
2023-02-14T05:19:39.591Z,-169.15761
2023-02-14T05:24:40.486Z,-168.70971
2023-02-14T05:29:41.508Z,-168.56518
2023-02-14T05:34:42.423Z,-168.31378
2023-02-14T05:39:43.329Z,-168.05059
2023-02-14T05:44:44.225Z,-167.93235
2023-02-14T05:49:45.154Z,-168.39386
2023-02-14T05:54:46.032Z,-168.35442
2023-02-14T05:59:46.938Z,-168.05087
2023-02-14T06:04:47.927Z,-167.86833
2023-02-14T06:09:48.898Z,-168.5557
2023-02-14T06:14:49.795Z,-168.56939
2023-02-14T06:19:50.717Z,-169.03399
2023-02-14T06:24:51.650Z,-168.84301
2023-02-14T06:29:52.740Z,-168.83601
2023-02-14T06:34:53.648Z,-168.85448
2023-02-14T06:39:54.560Z,-169.57029
2023-02-14T06:44:55.479Z,-169.56082
2023-02-14T06:49:56.500Z,-169.00264
2023-02-14T06:54:57.410Z,-168.91938
2023-02-14T06:59:58.321Z,-168.93643
2023-02-14T07:04:59.231Z,-168.6996
2023-02-14T07:10:00.248Z,-169.05718
2023-02-14T07:15:01.180Z,-168.67273
2023-02-14T07:20:02.132Z,-168.36382
2023-02-14T07:25:03.033Z,-168.44194
2023-02-14T07:30:04.088Z,-168.60343
2023-02-14T07:35:05.126Z,-168.53845
2023-02-14T07:40:08.773Z,-168.73313
2023-02-14T07:45:21.550Z,-168.74431
2023-02-14T07:50:23.363Z,-168.46438
2023-02-14T07:55:24.288Z,-168.35718
2023-02-14T08:00:25.260Z,-168.39693
2023-02-14T08:05:26.280Z,-168.27218
2023-02-14T08:10:27.387Z,-169.04363
2023-02-14T08:15:28.324Z,-169.26028
2023-02-14T08:20:29.245Z,-169.30106
2023-02-14T08:25:30.183Z,-169.51261
2023-02-14T08:30:31.530Z,-170.53752
2023-02-14T08:35:32.913Z,-171.10742
2023-02-14T08:40:33.895Z,-171.269
2023-02-14T08:45:34.824Z,-170.90829
2023-02-14T08:50:35.792Z,-171.5167
2023-02-14T08:55:36.703Z,-171.26404
2023-02-14T09:00:37.686Z,-171.43113
2023-02-14T09:05:38.637Z,-171.21924
2023-02-14T09:10:39.638Z,-171.44375
2023-02-14T09:15:40.588Z,-171.25433
2023-02-14T09:20:41.569Z,-171.04928
2023-02-14T09:25:42.520Z,-171.49267
2023-02-14T09:30:43.461Z,-171.44376
2023-02-14T09:35:44.348Z,-171.35326
2023-02-14T09:40:45.284Z,-171.11835
2023-02-14T09:45:46.231Z,-171.29867
2023-02-14T09:50:47.164Z,-171.78655
2023-02-14T09:55:48.102Z,-172.0554
2023-02-14T10:00:49.132Z,-171.81947
2023-02-14T10:05:50.068Z,-172.11576
2023-02-14T10:10:51.407Z,-171.59547
2023-02-14T10:15:52.298Z,-171.57976
2023-02-14T10:20:53.179Z,-171.44375
2023-02-14T10:25:54.058Z,-170.95053
2023-02-14T10:30:55.085Z,-171.15476
2023-02-14T10:35:56.113Z,-170.92855
2023-02-14T10:40:57.188Z,-170.14266
2023-02-14T10:45:58.267Z,-170.53487
2023-02-14T10:50:59.631Z,-170.35549
2023-02-14T10:56:00.697Z,-170.458
2023-02-14T11:01:02.108Z,-170.08136
2023-02-14T11:06:03.211Z,-170.0134
2023-02-14T11:11:04.126Z,-170.12558
2023-02-14T11:16:05.060Z,-169.58976
2023-02-14T11:21:06.013Z,-169.36217
2023-02-14T11:26:06.933Z,-169.12658
2023-02-14T11:31:07.910Z,-168.55262
2023-02-14T11:36:08.915Z,-168.53419
2023-02-14T11:41:09.866Z,-168.33115
2023-02-14T11:46:10.855Z,-167.39087
2023-02-14T11:51:12.067Z,-167.58799
2023-02-14T11:56:12.999Z,-167.56718
2023-02-14T12:01:13.927Z,-167.53757
2023-02-14T12:06:14.975Z,-167.08929
2023-02-14T12:11:15.927Z,-165.96624
2023-02-14T12:16:16.927Z,-165.37473
2023-02-14T12:21:17.858Z,-164.82037
2023-02-14T12:26:18.835Z,-164.45468
2023-02-14T12:31:19.819Z,-163.54597
2023-02-14T12:36:20.819Z,-162.49751
2023-02-14T12:41:21.758Z,-161.4657
2023-02-14T12:46:22.886Z,-161.77402
2023-02-14T12:51:23.844Z,-160.90927
2023-02-14T12:56:24.766Z,-161.05927
2023-02-14T13:01:29.187Z,-160.51257
2023-02-14T13:06:37.774Z,-159.74823
2023-02-14T13:11:38.754Z,-159.50403
2023-02-14T13:16:39.695Z,-159.47727
2023-02-14T13:21:40.711Z,-159.3238
2023-02-14T13:26:41.635Z,-158.93109
2023-02-14T13:31:42.706Z,-158.65915
2023-02-14T13:36:43.686Z,-158.26427
2023-02-14T13:41:44.617Z,-157.9359
2023-02-14T13:46:45.603Z,-158.36096
2023-02-14T13:51:46.573Z,-158.71523
2023-02-14T13:56:47.641Z,-158.27711
2023-02-14T14:01:48.574Z,-158.40695
2023-02-14T14:06:49.566Z,-158.53053
2023-02-14T14:11:50.531Z,-158.05635
2023-02-14T14:16:51.463Z,-158.06889
2023-02-14T14:21:52.396Z,-157.63067
2023-02-14T14:26:53.366Z,-157.20926
2023-02-14T14:31:54.382Z,-156.84632
2023-02-14T14:36:55.400Z,-156.14688
2023-02-14T14:41:56.301Z,-156.74422
2023-02-14T14:46:57.217Z,-156.63911
2023-02-14T14:51:58.157Z,-156.1022
2023-02-14T14:56:59.085Z,-156.2448
2023-02-14T15:02:00.039Z,-155.46385
2023-02-14T15:07:00.940Z,-156.00173
2023-02-14T15:12:01.845Z,-155.33651
2023-02-14T15:17:02.771Z,-154.81171
2023-02-14T15:22:03.701Z,-154.64365
2023-02-14T15:27:04.704Z,-153.77004
2023-02-14T15:32:05.795Z,-153.48785
2023-02-14T15:37:07.184Z,-153.65274
2023-02-14T15:42:08.179Z,-153.21437
2023-02-14T15:47:09.155Z,-152.57281
2023-02-14T15:52:10.078Z,-152.00903
2023-02-14T15:57:11.003Z,-152.00089
2023-02-14T16:02:11.948Z,-151.54774
2023-02-14T16:07:12.940Z,-151.07431
2023-02-14T16:12:13.876Z,-151.17408
2023-02-14T16:17:14.907Z,-151.16251
2023-02-14T16:22:15.899Z,-150.84476
2023-02-14T16:27:16.820Z,-150.32735
2023-02-14T16:32:17.970Z,-150.71377
2023-02-14T16:37:18.981Z,-151.03084
2023-02-14T16:42:19.944Z,-151.37744
2023-02-14T16:47:20.941Z,-151.53299
2023-02-14T16:52:23.443Z,-151.49294
2023-02-14T16:57:25.896Z,-150.90516
2023-02-14T17:02:28.850Z,-151.04416
2023-02-14T17:07:29.955Z,-151.15896
2023-02-14T17:12:30.883Z,-151.49568
2023-02-14T17:17:32.095Z,-150.64735
2023-02-14T17:22:33.303Z,-150.87851
2023-02-14T17:27:34.506Z,-150.78891
2023-02-14T17:32:35.514Z,-150.64172
2023-02-14T17:37:36.481Z,-150.29742
2023-02-14T17:42:37.361Z,-150.54204
2023-02-14T17:47:38.293Z,-150.49011
2023-02-14T17:52:39.532Z,-149.7327
2023-02-14T17:57:40.543Z,-150.28388
2023-02-14T18:02:41.784Z,-149.17577
2023-02-14T18:07:42.729Z,-149.44862
2023-02-14T18:12:43.675Z,-148.42591
2023-02-14T18:17:44.586Z,-148.55395
2023-02-14T18:22:45.528Z,-147.81131
2023-02-14T18:27:46.464Z,-147.8138
2023-02-14T18:32:47.369Z,-146.49369
2023-02-14T18:37:48.581Z,-146.73921
2023-02-14T18:42:49.839Z,-146.63318
2023-02-14T18:47:50.763Z,-146.16876
2023-02-14T18:52:51.698Z,-146.21585
2023-02-14T18:57:52.618Z,-146.01748
2023-02-14T19:02:53.528Z,-145.60357
2023-02-14T19:07:54.478Z,-144.52466
2023-02-14T19:12:55.458Z,-144.2278
2023-02-14T19:17:56.399Z,-143.9976
2023-02-14T19:22:57.327Z,-143.8793
2023-02-14T19:27:58.234Z,-143.81618
2023-02-14T19:32:59.169Z,-143.15594
2023-02-14T19:38:00.126Z,-143.49675
2023-02-14T19:43:01.076Z,-143.39248
2023-02-14T19:48:02.124Z,-143.42833
2023-02-14T19:53:03.333Z,-142.91711
2023-02-14T19:58:04.290Z,-142.99424
2023-02-14T20:03:05.222Z,-143.1129
2023-02-14T20:08:06.135Z,-142.80844
2023-02-14T20:13:07.048Z,-142.99536
2023-02-14T20:18:07.925Z,-142.88929
2023-02-14T20:23:08.860Z,-142.23741
2023-02-14T20:28:09.796Z,-141.6552
2023-02-14T20:33:10.874Z,-141.14036
2023-02-14T20:38:11.861Z,-140.71932
2023-02-14T20:43:12.793Z,-140.34655
2023-02-14T20:48:13.784Z,-139.4701
2023-02-14T20:53:14.718Z,-139.17675
2023-02-14T20:58:15.657Z,-139.43989
2023-02-14T21:03:16.615Z,-139.50419
2023-02-14T21:08:17.568Z,-139.07517
2023-02-14T21:13:18.513Z,-138.7099
2023-02-14T21:18:19.482Z,-138.77505
2023-02-14T21:23:20.392Z,-138.46321
2023-02-14T21:28:21.259Z,-138.1065
2023-02-14T21:33:22.157Z,-138.15735
2023-02-14T21:38:23.108Z,-137.75958
2023-02-14T21:43:24.012Z,-138.18917
2023-02-14T21:48:24.917Z,-137.94907
2023-02-14T21:53:25.833Z,-137.54863
2023-02-14T21:58:26.722Z,-136.97273
2023-02-14T22:03:27.603Z,-136.45476
2023-02-14T22:08:28.484Z,-136.35067
2023-02-14T22:13:29.426Z,-136.17031
2023-02-14T22:18:30.396Z,-136.48342
2023-02-14T22:23:31.328Z,-136.11404
2023-02-14T22:28:32.466Z,-135.66398
2023-02-14T22:33:33.668Z,-135.37492
2023-02-14T22:38:34.755Z,-134.8628
2023-02-14T22:43:35.686Z,-134.79449
2023-02-14T22:48:36.608Z,-134.21566
2023-02-14T22:53:37.959Z,-133.67854
2023-02-14T22:58:38.888Z,-133.85639
2023-02-14T23:03:39.860Z,-133.32963
2023-02-14T23:08:40.801Z,-132.87686
2023-02-14T23:13:41.722Z,-132.66175
2023-02-14T23:18:42.742Z,-132.24783
2023-02-14T23:23:43.672Z,-131.63376
2023-02-14T23:28:44.590Z,-131.51792
2023-02-14T23:33:45.633Z,-131.80411
2023-02-14T23:38:46.588Z,-130.85823
2023-02-14T23:43:47.502Z,-130.77433
2023-02-14T23:48:48.424Z,-130.52206
2023-02-14T23:53:49.370Z,-130.52984
2023-02-14T23:58:50.283Z,-130.67996
